PWSweather.com
Personal Weather Stations
Station Observations
MBORO100
Brandywood , Murfreesboro, TN 37130

Brandywood Murfreesboro, TN 37130

Lat: 35.908093, Lon: -86.31352

Elevation: 690

Station Type: Davis

www.murfreesboroweather.com

High Low Average
Temperature 78.0°F25.6°C 48.5°F9.2°C 64.2°F17.9°C
Dew Point 62.0°F16.7°C 41.5°F5.3°C 54.4°F12.4°C
Winds 8.1 mph 13.0 kmh Calm Calm 3.0 mph SW4.8 kmh SW
Wind Gusts 15.0 mph24.1 kmh -- 5.0 mph8.0 kmh
Humidity 97% 35% 73%
Pressure 29.96 in1014.6 mb 29.74 in1007.1 mb -
Precipitation 0.11 in2.8 mm - -
Hour Temp Dew Point Humidity Winds Wind Gusts Pressure Precip Precip Rate Daily Precip Total
12:00 AM 60.4°F15.8°C 52.8°F11.6°C 76% 2.3 mph SSE3.7 kmh SSE 3.5 mph5.6 kmh 29.94 in1013.9 mb - 0.00 in0.0 mm 0.00 in0.0 mm
12:10 AM 60.3°F15.7°C 52.7°F11.5°C 76% 3.5 mph S5.6 kmh S 3.5 mph5.6 kmh 29.94 in1013.9 mb - 0.00 in0.0 mm 0.00 in0.0 mm
12:15 AM 60.3°F15.7°C 52.7°F11.5°C 76% 3.5 mph SSE5.6 kmh SSE 5.8 mph9.3 kmh 29.94 in1013.9 mb - 0.00 in0.0 mm 0.00 in0.0 mm
12:20 AM 60.3°F15.7°C 53.1°F11.7°C 77% 2.3 mph S3.7 kmh S 3.5 mph5.6 kmh 29.94 in1013.9 mb - 0.00 in0.0 mm 0.00 in0.0 mm
12:25 AM 60.4°F15.8°C 53.2°F11.8°C 77% 2.3 mph S3.7 kmh S 4.6 mph7.4 kmh 29.94 in1013.9 mb - 0.00 in0.0 mm 0.00 in0.0 mm
12:30 AM 60.3°F15.7°C 53.1°F11.7°C 77% 1.2 mph S1.9 kmh S 4.6 mph7.4 kmh 29.94 in1013.9 mb - 0.00 in0.0 mm 0.00 in0.0 mm
12:35 AM 60.4°F15.8°C 53.2°F11.8°C 77% 2.3 mph S3.7 kmh S 5.8 mph9.3 kmh 29.93 in1013.5 mb - 0.00 in0.0 mm 0.00 in0.0 mm
12:40 AM 60.4°F15.8°C 53.2°F11.8°C 77% 2.3 mph S3.7 kmh S 3.5 mph5.6 kmh 29.93 in1013.5 mb - 0.00 in0.0 mm 0.00 in0.0 mm
12:45 AM 60.4°F15.8°C 53.2°F11.8°C 77% 2.3 mph SSW3.7 kmh SSW 3.5 mph5.6 kmh 29.93 in1013.5 mb - 0.00 in0.0 mm 0.00 in0.0 mm
12:50 AM 60.4°F15.8°C 53.5°F11.9°C 78% 2.3 mph SSE3.7 kmh SSE 4.6 mph7.4 kmh 29.93 in1013.5 mb - 0.00 in0.0 mm 0.00 in0.0 mm
12:55 AM 60.4°F15.8°C 53.5°F11.9°C 78% 2.3 mph S3.7 kmh S 3.5 mph5.6 kmh 29.93 in1013.5 mb - 0.00 in0.0 mm 0.00 in0.0 mm
01:00 AM 60.4°F15.8°C 53.5°F11.9°C 78% 3.5 mph SSE5.6 kmh SSE 6.9 mph11.1 kmh 29.93 in1013.5 mb - 0.00 in0.0 mm 0.00 in0.0 mm
01:10 AM 60.4°F15.8°C 53.9°F12.2°C 79% 3.5 mph SSE5.6 kmh SSE 6.9 mph11.1 kmh 29.93 in1013.5 mb - 0.00 in0.0 mm 0.00 in0.0 mm
01:15 AM 60.3°F15.7°C 53.8°F12.1°C 79% 3.5 mph S5.6 kmh S 8.1 mph13.0 kmh 29.92 in1013.2 mb - 0.00 in0.0 mm 0.00 in0.0 mm
01:20 AM 60.2°F15.7°C 53.7°F12.1°C 79% 2.3 mph SSW3.7 kmh SSW 4.6 mph7.4 kmh 29.93 in1013.5 mb - 0.00 in0.0 mm 0.00 in0.0 mm
01:25 AM 60.2°F15.7°C 53.7°F12.1°C 79% 1.2 mph SW1.9 kmh SW 3.5 mph5.6 kmh 29.92 in1013.2 mb - 0.00 in0.0 mm 0.00 in0.0 mm
01:30 AM 60.2°F15.7°C 54.0°F12.2°C 80% 2.3 mph SW3.7 kmh SW 4.6 mph7.4 kmh 29.92 in1013.2 mb - 0.00 in0.0 mm 0.00 in0.0 mm
01:35 AM 59.8°F15.4°C 54.3°F12.4°C 82% 1.2 mph W1.9 kmh W 2.3 mph3.7 kmh 29.92 in1013.2 mb - 0.00 in0.0 mm 0.00 in0.0 mm
01:40 AM 59.1°F15.1°C 54.6°F12.6°C 85% Calm Calm 1.2 mph1.9 kmh 29.92 in1013.2 mb - 0.00 in0.0 mm 0.00 in0.0 mm
01:45 AM 58.7°F14.8°C 54.6°F12.6°C 86% 2.3 mph S3.7 kmh S 3.5 mph5.6 kmh 29.91 in1012.9 mb - 0.00 in0.0 mm 0.00 in0.0 mm
01:50 AM 58.8°F14.9°C 54.6°F12.6°C 86% 1.2 mph S1.9 kmh S 3.5 mph5.6 kmh 29.91 in1012.9 mb - 0.00 in0.0 mm 0.00 in0.0 mm
01:55 AM 58.9°F14.9°C 54.4°F12.4°C 85% 3.5 mph S5.6 kmh S 5.8 mph9.3 kmh 29.91 in1012.9 mb - 0.00 in0.0 mm 0.00 in0.0 mm
02:00 AM 59.2°F15.1°C 54.7°F12.6°C 85% 1.2 mph SW1.9 kmh SW 3.5 mph5.6 kmh 29.91 in1012.9 mb - 0.00 in0.0 mm 0.00 in0.0 mm
02:10 AM 59.3°F15.2°C 54.8°F12.7°C 85% 2.3 mph S3.7 kmh S 4.6 mph7.4 kmh 29.90 in1012.5 mb - 0.00 in0.0 mm 0.00 in0.0 mm
02:15 AM 59.5°F15.3°C 54.6°F12.6°C 84% 1.2 mph S1.9 kmh S 3.5 mph5.6 kmh 29.90 in1012.5 mb - 0.00 in0.0 mm 0.00 in0.0 mm
02:20 AM 59.5°F15.3°C 54.7°F12.6°C 84% 2.3 mph S3.7 kmh S 4.6 mph7.4 kmh 29.90 in1012.5 mb - 0.00 in0.0 mm 0.00 in0.0 mm
02:25 AM 59.7°F15.4°C 54.9°F12.7°C 84% 1.2 mph SW1.9 kmh SW 3.5 mph5.6 kmh 29.90 in1012.5 mb - 0.00 in0.0 mm 0.00 in0.0 mm
02:30 AM 59.7°F15.4°C 54.9°F12.7°C 84% 1.2 mph SSW1.9 kmh SSW 3.5 mph5.6 kmh 29.89 in1012.2 mb - 0.00 in0.0 mm 0.00 in0.0 mm
02:35 AM 59.7°F15.4°C 55.2°F12.9°C 85% 2.3 mph SSW3.7 kmh SSW 3.5 mph5.6 kmh 29.89 in1012.2 mb - 0.00 in0.0 mm 0.00 in0.0 mm
02:40 AM 59.7°F15.4°C 55.2°F12.9°C 85% 1.2 mph S1.9 kmh S 2.3 mph3.7 kmh 29.90 in1012.5 mb - 0.00 in0.0 mm 0.00 in0.0 mm
02:45 AM 59.7°F15.4°C 55.2°F12.9°C 85% 1.2 mph SW1.9 kmh SW 3.5 mph5.6 kmh 29.91 in1012.9 mb - 0.00 in0.0 mm 0.00 in0.0 mm
02:50 AM 59.7°F15.4°C 55.2°F12.9°C 85% Calm Calm 1.2 mph1.9 kmh 29.90 in1012.5 mb - 0.00 in0.0 mm 0.00 in0.0 mm
02:55 AM 59.7°F15.4°C 55.5°F13.1°C 86% 1.2 mph S1.9 kmh S 3.5 mph5.6 kmh 29.90 in1012.5 mb - 0.00 in0.0 mm 0.00 in0.0 mm
03:00 AM 59.6°F15.3°C 55.5°F13.1°C 86% 3.5 mph S5.6 kmh S 5.8 mph9.3 kmh 29.89 in1012.2 mb - 0.00 in0.0 mm 0.00 in0.0 mm
03:10 AM 59.5°F15.3°C 55.4°F13.0°C 86% 2.3 mph S3.7 kmh S 3.5 mph5.6 kmh 29.88 in1011.9 mb - 0.00 in0.0 mm 0.00 in0.0 mm
03:15 AM 59.5°F15.3°C 55.6°F13.1°C 87% 2.3 mph S3.7 kmh S 6.9 mph11.1 kmh 29.88 in1011.9 mb - 0.00 in0.0 mm 0.00 in0.0 mm
03:20 AM 59.6°F15.3°C 55.7°F13.2°C 87% 3.5 mph S5.6 kmh S 4.6 mph7.4 kmh 29.88 in1011.9 mb - 0.00 in0.0 mm 0.00 in0.0 mm
03:25 AM 59.6°F15.3°C 55.7°F13.2°C 87% 2.3 mph S3.7 kmh S 15.0 mph24.1 kmh 29.87 in1011.5 mb - 0.01 in0.3 mm 0.01 in0.3 mm
03:30 AM 59.7°F15.4°C 55.8°F13.2°C 87% 2.3 mph S3.7 kmh S 8.1 mph13.0 kmh 29.86 in1011.2 mb - 0.01 in0.3 mm 0.01 in0.3 mm
03:35 AM 59.6°F15.3°C 55.7°F13.2°C 87% 2.3 mph S3.7 kmh S 3.5 mph5.6 kmh 29.85 in1010.8 mb - 0.00 in0.0 mm 0.01 in0.3 mm
03:40 AM 59.6°F15.3°C 56.0°F13.3°C 88% 2.3 mph SSE3.7 kmh SSE 5.8 mph9.3 kmh 29.85 in1010.8 mb - 0.00 in0.0 mm 0.01 in0.3 mm
03:45 AM 59.6°F15.3°C 56.0°F13.3°C 88% 3.5 mph S5.6 kmh S 8.1 mph13.0 kmh 29.86 in1011.2 mb - 0.00 in0.0 mm 0.01 in0.3 mm
03:50 AM 59.7°F15.4°C 56.1°F13.4°C 88% 2.3 mph S3.7 kmh S 4.6 mph7.4 kmh 29.86 in1011.2 mb - 0.00 in0.0 mm 0.01 in0.3 mm
03:55 AM 59.7°F15.4°C 56.1°F13.4°C 88% 2.3 mph S3.7 kmh S 3.5 mph5.6 kmh 29.86 in1011.2 mb - 0.00 in0.0 mm 0.01 in0.3 mm
04:00 AM 59.7°F15.4°C 56.1°F13.4°C 88% 2.3 mph SSE3.7 kmh SSE 6.9 mph11.1 kmh 29.85 in1010.8 mb - 0.00 in0.0 mm 0.01 in0.3 mm
04:10 AM 59.7°F15.4°C 56.5°F13.6°C 89% 2.3 mph SSE3.7 kmh SSE 4.6 mph7.4 kmh 29.85 in1010.8 mb - 0.00 in0.0 mm 0.01 in0.3 mm
04:15 AM 59.8°F15.4°C 56.6°F13.7°C 89% 2.3 mph SSW3.7 kmh SSW 4.6 mph7.4 kmh 29.84 in1010.5 mb - 0.00 in0.0 mm 0.01 in0.3 mm
04:20 AM 59.8°F15.4°C 56.6°F13.7°C 89% 2.3 mph SW3.7 kmh SW 6.9 mph11.1 kmh 29.85 in1010.8 mb - 0.00 in0.0 mm 0.01 in0.3 mm
04:25 AM 59.9°F15.5°C 56.6°F13.7°C 89% 2.3 mph S3.7 kmh S 4.6 mph7.4 kmh 29.86 in1011.2 mb - 0.00 in0.0 mm 0.01 in0.3 mm
04:30 AM 60.0°F15.6°C 56.7°F13.7°C 89% 1.2 mph S1.9 kmh S 3.5 mph5.6 kmh 29.86 in1011.2 mb - 0.00 in0.0 mm 0.01 in0.3 mm
04:35 AM 60.1°F15.6°C 56.8°F13.8°C 89% 1.2 mph SSW1.9 kmh SSW 3.5 mph5.6 kmh 29.85 in1010.8 mb - 0.00 in0.0 mm 0.01 in0.3 mm
04:40 AM 60.2°F15.7°C 56.9°F13.8°C 89% 2.3 mph SSW3.7 kmh SSW 4.6 mph7.4 kmh 29.85 in1010.8 mb - 0.00 in0.0 mm 0.01 in0.3 mm
04:45 AM 60.2°F15.7°C 56.9°F13.8°C 89% 2.3 mph WNW3.7 kmh WNW 3.5 mph5.6 kmh 29.86 in1011.2 mb - 0.00 in0.0 mm 0.01 in0.3 mm
04:50 AM 60.2°F15.7°C 56.9°F13.8°C 89% 4.6 mph NW7.4 kmh NW 8.1 mph13.0 kmh 29.89 in1012.2 mb - 0.00 in0.0 mm 0.01 in0.3 mm
04:55 AM 60.0°F15.6°C 57.1°F13.9°C 90% 1.2 mph SW1.9 kmh SW 2.3 mph3.7 kmh 29.88 in1011.9 mb - 0.05 in1.3 mm 0.06 in1.5 mm
05:00 AM 59.6°F15.3°C 57.2°F14.0°C 92% 1.2 mph NW1.9 kmh NW 3.5 mph5.6 kmh 29.89 in1012.2 mb - 0.04 in1.0 mm 0.09 in2.3 mm
05:10 AM 59.1°F15.1°C 57.1°F13.9°C 93% 1.2 mph WNW1.9 kmh WNW 2.3 mph3.7 kmh 29.90 in1012.5 mb - 0.03 in0.8 mm 0.11 in2.8 mm
05:15 AM 59.1°F15.1°C 57.4°F14.1°C 94% 1.2 mph WNW1.9 kmh WNW 2.3 mph3.7 kmh 29.90 in1012.5 mb - 0.00 in0.0 mm 0.11 in2.8 mm
05:20 AM 59.0°F15.0°C 57.3°F14.1°C 94% 1.2 mph WNW1.9 kmh WNW 2.3 mph3.7 kmh 29.90 in1012.5 mb - 0.00 in0.0 mm 0.11 in2.8 mm
05:25 AM 59.0°F15.0°C 57.6°F14.2°C 95% 1.2 mph WNW1.9 kmh WNW 1.2 mph1.9 kmh 29.90 in1012.5 mb - 0.00 in0.0 mm 0.11 in2.8 mm
05:30 AM 59.1°F15.1°C 57.7°F14.3°C 95% Calm Calm -- 29.89 in1012.2 mb - 0.00 in0.0 mm 0.11 in2.8 mm
05:35 AM 59.0°F15.0°C 57.6°F14.2°C 95% Calm Calm -- 29.89 in1012.2 mb - 0.00 in0.0 mm 0.11 in2.8 mm
05:40 AM 58.9°F14.9°C 57.5°F14.2°C 95% Calm Calm -- 29.88 in1011.9 mb - 0.00 in0.0 mm 0.11 in2.8 mm
05:45 AM 58.7°F14.8°C 57.3°F14.1°C 95% Calm Calm -- 29.88 in1011.9 mb - 0.00 in0.0 mm 0.11 in2.8 mm
05:50 AM 58.7°F14.8°C 57.3°F14.1°C 95% Calm Calm -- 29.88 in1011.9 mb - 0.00 in0.0 mm 0.11 in2.8 mm
05:55 AM 58.6°F14.8°C 57.5°F14.2°C 96% Calm Calm -- 29.88 in1011.9 mb - 0.00 in0.0 mm 0.11 in2.8 mm
06:00 AM 58.5°F14.7°C 57.4°F14.1°C 96% Calm Calm -- 29.88 in1011.9 mb - 0.00 in0.0 mm 0.11 in2.8 mm
06:10 AM 58.4°F14.7°C 57.3°F14.1°C 96% Calm Calm -- 29.88 in1011.9 mb - 0.00 in0.0 mm 0.11 in2.8 mm
06:15 AM 58.4°F14.7°C 57.3°F14.1°C 96% Calm Calm -- 29.88 in1011.9 mb - 0.00 in0.0 mm 0.11 in2.8 mm
06:20 AM 58.4°F14.7°C 57.3°F14.1°C 96% Calm Calm -- 29.88 in1011.9 mb - 0.00 in0.0 mm 0.11 in2.8 mm
06:25 AM 58.4°F14.7°C 57.3°F14.1°C 96% Calm Calm -- 29.88 in1011.9 mb - 0.00 in0.0 mm 0.11 in2.8 mm
06:30 AM 58.4°F14.7°C 57.3°F14.1°C 96% Calm Calm -- 29.88 in1011.9 mb - 0.00 in0.0 mm 0.11 in2.8 mm
06:35 AM 58.4°F14.7°C 57.3°F14.1°C 96% Calm Calm -- 29.88 in1011.9 mb - 0.00 in0.0 mm 0.11 in2.8 mm
06:40 AM 58.4°F14.7°C 57.3°F14.1°C 96% Calm Calm -- 29.88 in1011.9 mb - 0.00 in0.0 mm 0.11 in2.8 mm
06:45 AM 58.4°F14.7°C 57.6°F14.2°C 97% Calm Calm -- 29.88 in1011.9 mb - 0.00 in0.0 mm 0.11 in2.8 mm
06:50 AM 58.4°F14.7°C 57.6°F14.2°C 97% Calm Calm -- 29.88 in1011.9 mb - 0.00 in0.0 mm 0.11 in2.8 mm
06:55 AM 58.4°F14.7°C 57.6°F14.2°C 97% Calm Calm -- 29.88 in1011.9 mb - 0.00 in0.0 mm 0.11 in2.8 mm
07:00 AM 58.3°F14.6°C 57.5°F14.2°C 97% Calm Calm -- 29.88 in1011.9 mb - 0.00 in0.0 mm 0.11 in2.8 mm
07:10 AM 58.2°F14.6°C 57.4°F14.1°C 97% 2.3 mph S3.7 kmh S 2.3 mph3.7 kmh 29.88 in1011.9 mb - 0.00 in0.0 mm 0.11 in2.8 mm
07:15 AM 58.0°F14.4°C 57.2°F14.0°C 97% 2.3 mph S3.7 kmh S 2.3 mph3.7 kmh 29.88 in1011.9 mb - 0.00 in0.0 mm 0.11 in2.8 mm
07:20 AM 58.0°F14.4°C 57.2°F14.0°C 97% 1.2 mph S1.9 kmh S 2.3 mph3.7 kmh 29.88 in1011.9 mb - 0.00 in0.0 mm 0.11 in2.8 mm
07:25 AM 58.0°F14.4°C 57.2°F14.0°C 97% 1.2 mph S1.9 kmh S 3.5 mph5.6 kmh 29.88 in1011.9 mb - 0.00 in0.0 mm 0.11 in2.8 mm
07:30 AM 58.1°F14.5°C 57.3°F14.1°C 97% 2.3 mph S3.7 kmh S 3.5 mph5.6 kmh 29.89 in1012.2 mb - 0.00 in0.0 mm 0.11 in2.8 mm
07:35 AM 58.1°F14.5°C 57.3°F14.1°C 97% 2.3 mph S3.7 kmh S 3.5 mph5.6 kmh 29.88 in1011.9 mb - 0.00 in0.0 mm 0.11 in2.8 mm
07:40 AM 58.1°F14.5°C 57.3°F14.1°C 97% 2.3 mph S3.7 kmh S 3.5 mph5.6 kmh 29.88 in1011.9 mb - 0.00 in0.0 mm 0.11 in2.8 mm
07:45 AM 58.2°F14.6°C 57.3°F14.1°C 97% 2.3 mph S3.7 kmh S 3.5 mph5.6 kmh 29.88 in1011.9 mb - 0.00 in0.0 mm 0.11 in2.8 mm
07:50 AM 58.2°F14.6°C 57.4°F14.1°C 97% 1.2 mph S1.9 kmh S 3.5 mph5.6 kmh 29.88 in1011.9 mb - 0.00 in0.0 mm 0.11 in2.8 mm
07:55 AM 58.3°F14.6°C 57.5°F14.2°C 97% Calm Calm 3.5 mph5.6 kmh 29.88 in1011.9 mb - 0.00 in0.0 mm 0.11 in2.8 mm
08:00 AM 58.4°F14.7°C 57.6°F14.2°C 97% 2.3 mph SSE3.7 kmh SSE 3.5 mph5.6 kmh 29.87 in1011.5 mb - 0.00 in0.0 mm 0.11 in2.8 mm
08:10 AM 58.6°F14.8°C 57.8°F14.3°C 97% 1.2 mph SSE1.9 kmh SSE 3.5 mph5.6 kmh 29.87 in1011.5 mb - 0.00 in0.0 mm 0.11 in2.8 mm
08:15 AM 58.7°F14.8°C 57.9°F14.4°C 97% 2.3 mph SSE3.7 kmh SSE 3.5 mph5.6 kmh 29.88 in1011.9 mb - 0.00 in0.0 mm 0.11 in2.8 mm
08:20 AM 58.9°F14.9°C 58.0°F14.4°C 97% 1.2 mph SSE1.9 kmh SSE 2.3 mph3.7 kmh 29.87 in1011.5 mb - 0.00 in0.0 mm 0.11 in2.8 mm
08:25 AM 59.0°F15.0°C 58.2°F14.6°C 97% 2.3 mph SSE3.7 kmh SSE 3.5 mph5.6 kmh 29.87 in1011.5 mb - 0.00 in0.0 mm 0.11 in2.8 mm
08:30 AM 59.3°F15.2°C 58.4°F14.7°C 97% 1.2 mph SSE1.9 kmh SSE 2.3 mph3.7 kmh 29.87 in1011.5 mb - 0.00 in0.0 mm 0.11 in2.8 mm
08:35 AM 59.5°F15.3°C 58.6°F14.8°C 97% 1.2 mph SSE1.9 kmh SSE 2.3 mph3.7 kmh 29.87 in1011.5 mb - 0.00 in0.0 mm 0.11 in2.8 mm
08:40 AM 59.7°F15.4°C 58.8°F14.9°C 97% 2.3 mph SW3.7 kmh SW 3.5 mph5.6 kmh 29.88 in1011.9 mb - 0.00 in0.0 mm 0.11 in2.8 mm
08:45 AM 59.9°F15.5°C 58.8°F14.9°C 96% 1.2 mph S1.9 kmh S 3.5 mph5.6 kmh 29.88 in1011.9 mb - 0.00 in0.0 mm 0.11 in2.8 mm
08:50 AM 60.2°F15.7°C 59.0°F15.0°C 96% Calm Calm 2.3 mph3.7 kmh 29.88 in1011.9 mb - 0.00 in0.0 mm 0.11 in2.8 mm
08:55 AM 60.3°F15.7°C 59.2°F15.1°C 96% 1.2 mph S1.9 kmh S 4.6 mph7.4 kmh 29.89 in1012.2 mb - 0.00 in0.0 mm 0.11 in2.8 mm
09:00 AM 60.5°F15.8°C 59.1°F15.1°C 95% Calm Calm 1.2 mph1.9 kmh 29.88 in1011.9 mb - 0.00 in0.0 mm 0.11 in2.8 mm
09:10 AM 61.1°F16.2°C 59.6°F15.3°C 95% 1.2 mph SSW1.9 kmh SSW 4.6 mph7.4 kmh 29.88 in1011.9 mb - 0.00 in0.0 mm 0.11 in2.8 mm
09:15 AM 61.3°F16.3°C 59.6°F15.3°C 94% 1.2 mph SSE1.9 kmh SSE 3.5 mph5.6 kmh 29.88 in1011.9 mb - 0.00 in0.0 mm 0.11 in2.8 mm
09:20 AM 61.8°F16.6°C 60.0°F15.6°C 94% 1.2 mph S1.9 kmh S 2.3 mph3.7 kmh 29.88 in1011.9 mb - 0.00 in0.0 mm 0.11 in2.8 mm
09:25 AM 62.4°F16.9°C 60.1°F15.6°C 92% 1.2 mph S1.9 kmh S 2.3 mph3.7 kmh 29.88 in1011.9 mb - 0.00 in0.0 mm 0.11 in2.8 mm
09:30 AM 62.9°F17.2°C 60.5°F15.8°C 92% Calm Calm 3.5 mph5.6 kmh 29.88 in1011.9 mb - 0.00 in0.0 mm 0.11 in2.8 mm
09:35 AM 63.0°F17.2°C 60.3°F15.7°C 91% 2.3 mph S3.7 kmh S 2.3 mph3.7 kmh 29.87 in1011.5 mb - 0.00 in0.0 mm 0.11 in2.8 mm
09:40 AM 63.0°F17.2°C 60.3°F15.7°C 91% 1.2 mph SW1.9 kmh SW 3.5 mph5.6 kmh 29.87 in1011.5 mb - 0.00 in0.0 mm 0.11 in2.8 mm
09:45 AM 63.0°F17.2°C 60.0°F15.6°C 90% 2.3 mph SW3.7 kmh SW 4.6 mph7.4 kmh 29.87 in1011.5 mb - 0.00 in0.0 mm 0.11 in2.8 mm
09:50 AM 63.0°F17.2°C 60.0°F15.6°C 90% 3.5 mph WSW5.6 kmh WSW 4.6 mph7.4 kmh 29.87 in1011.5 mb - 0.00 in0.0 mm 0.11 in2.8 mm
09:55 AM 63.0°F17.2°C 60.0°F15.6°C 90% 1.2 mph SSW1.9 kmh SSW 4.6 mph7.4 kmh 29.87 in1011.5 mb - 0.00 in0.0 mm 0.11 in2.8 mm
10:00 AM 63.1°F17.3°C 59.8°F15.4°C 89% 3.5 mph SSW5.6 kmh SSW 6.9 mph11.1 kmh 29.86 in1011.2 mb - 0.00 in0.0 mm 0.11 in2.8 mm
10:10 AM 64.1°F17.8°C 60.8°F16.0°C 89% 2.3 mph S3.7 kmh S 3.5 mph5.6 kmh 29.87 in1011.5 mb - 0.00 in0.0 mm 0.11 in2.8 mm
10:15 AM 64.5°F18.1°C 60.9°F16.1°C 88% 1.2 mph S1.9 kmh S 3.5 mph5.6 kmh 29.86 in1011.2 mb - 0.00 in0.0 mm 0.11 in2.8 mm
10:20 AM 64.8°F18.2°C 60.8°F16.0°C 87% 3.5 mph S5.6 kmh S 4.6 mph7.4 kmh 29.87 in1011.5 mb - 0.00 in0.0 mm 0.11 in2.8 mm
10:25 AM 65.6°F18.7°C 61.3°F16.3°C 86% 1.2 mph SW1.9 kmh SW 3.5 mph5.6 kmh 29.87 in1011.5 mb - 0.00 in0.0 mm 0.11 in2.8 mm
10:30 AM 65.6°F18.7°C 61.0°F16.1°C 85% 3.5 mph W5.6 kmh W 11.5 mph18.5 kmh 29.87 in1011.5 mb - 0.00 in0.0 mm 0.11 in2.8 mm
10:35 AM 65.6°F18.7°C 60.7°F15.9°C 84% 3.5 mph W5.6 kmh W 5.8 mph9.3 kmh 29.87 in1011.5 mb - 0.00 in0.0 mm 0.11 in2.8 mm
10:40 AM 66.1°F18.9°C 61.1°F16.2°C 84% 1.2 mph S1.9 kmh S 2.3 mph3.7 kmh 29.87 in1011.5 mb - 0.00 in0.0 mm 0.11 in2.8 mm
10:45 AM 66.4°F19.1°C 61.1°F16.2°C 83% 2.3 mph WSW3.7 kmh WSW 3.5 mph5.6 kmh 29.87 in1011.5 mb - 0.00 in0.0 mm 0.11 in2.8 mm
10:50 AM 66.9°F19.4°C 61.2°F16.2°C 82% 2.3 mph W3.7 kmh W 5.8 mph9.3 kmh 29.87 in1011.5 mb - 0.00 in0.0 mm 0.11 in2.8 mm
10:55 AM 67.1°F19.5°C 60.7°F15.9°C 80% 2.3 mph WSW3.7 kmh WSW 5.8 mph9.3 kmh 29.87 in1011.5 mb - 0.00 in0.0 mm 0.11 in2.8 mm
11:00 AM 67.4°F19.7°C 61.0°F16.1°C 80% 2.3 mph W3.7 kmh W 3.5 mph5.6 kmh 29.86 in1011.2 mb - 0.00 in0.0 mm 0.11 in2.8 mm
11:10 AM 67.8°F19.9°C 60.4°F15.8°C 77% 2.3 mph WSW3.7 kmh WSW 6.9 mph11.1 kmh 29.86 in1011.2 mb - 0.00 in0.0 mm 0.11 in2.8 mm
11:15 AM 68.2°F20.1°C 60.8°F16.0°C 77% 3.5 mph WSW5.6 kmh WSW 3.5 mph5.6 kmh 29.86 in1011.2 mb - 0.00 in0.0 mm 0.11 in2.8 mm
11:20 AM 69.5°F20.8°C 62.0°F16.7°C 77% 2.3 mph SW3.7 kmh SW 4.6 mph7.4 kmh 29.86 in1011.2 mb - 0.00 in0.0 mm 0.11 in2.8 mm
11:25 AM 70.3°F21.3°C 61.6°F16.4°C 74% 3.5 mph S5.6 kmh S 6.9 mph11.1 kmh 29.86 in1011.2 mb - 0.00 in0.0 mm 0.11 in2.8 mm
11:30 AM 69.7°F20.9°C 61.0°F16.1°C 74% 4.6 mph W7.4 kmh W 6.9 mph11.1 kmh 29.86 in1011.2 mb - 0.00 in0.0 mm 0.11 in2.8 mm
11:35 AM 70.2°F21.2°C 61.9°F16.6°C 75% 2.3 mph WSW3.7 kmh WSW 4.6 mph7.4 kmh 29.85 in1010.8 mb - 0.00 in0.0 mm 0.11 in2.8 mm
11:40 AM 70.3°F21.3°C 61.2°F16.2°C 73% 2.3 mph SSW3.7 kmh SSW 5.8 mph9.3 kmh 29.85 in1010.8 mb - 0.00 in0.0 mm 0.11 in2.8 mm
11:45 AM 70.6°F21.4°C 61.5°F16.4°C 73% 3.5 mph S5.6 kmh S 4.6 mph7.4 kmh 29.85 in1010.8 mb - 0.00 in0.0 mm 0.11 in2.8 mm
11:50 AM 70.4°F21.3°C 60.9°F16.1°C 72% 2.3 mph WSW3.7 kmh WSW 4.6 mph7.4 kmh 29.84 in1010.5 mb - 0.00 in0.0 mm 0.11 in2.8 mm
11:55 AM 71.2°F21.8°C 61.7°F16.5°C 72% 3.5 mph SSE5.6 kmh SSE 9.2 mph14.8 kmh 29.84 in1010.5 mb - 0.00 in0.0 mm 0.11 in2.8 mm
12:00 PM 71.1°F21.7°C 60.8°F16.0°C 70% 3.5 mph SSE5.6 kmh SSE 4.6 mph7.4 kmh 29.84 in1010.5 mb - 0.00 in0.0 mm 0.11 in2.8 mm
12:10 PM 71.5°F21.9°C 60.0°F15.6°C 67% 3.5 mph S5.6 kmh S 5.8 mph9.3 kmh 29.84 in1010.5 mb - 0.00 in0.0 mm 0.11 in2.8 mm
12:15 PM 71.5°F21.9°C 60.0°F15.6°C 67% 3.5 mph SSW5.6 kmh SSW 3.5 mph5.6 kmh 29.84 in1010.5 mb - 0.00 in0.0 mm 0.11 in2.8 mm
12:20 PM 71.6°F22.0°C 59.6°F15.3°C 66% 4.6 mph SW7.4 kmh SW 9.2 mph14.8 kmh 29.84 in1010.5 mb - 0.00 in0.0 mm 0.11 in2.8 mm
12:25 PM 71.1°F21.7°C 60.0°F15.6°C 68% 3.5 mph S5.6 kmh S 9.2 mph14.8 kmh 29.84 in1010.5 mb - 0.00 in0.0 mm 0.11 in2.8 mm
12:30 PM 71.1°F21.7°C 60.0°F15.6°C 68% 3.5 mph SSE5.6 kmh SSE 3.5 mph5.6 kmh 29.84 in1010.5 mb - 0.00 in0.0 mm 0.11 in2.8 mm
12:35 PM 72.0°F22.2°C 60.0°F15.6°C 66% 3.5 mph S5.6 kmh S 5.8 mph9.3 kmh 29.83 in1010.2 mb - 0.00 in0.0 mm 0.11 in2.8 mm
12:40 PM 72.2°F22.3°C 60.2°F15.7°C 66% 5.8 mph S9.3 kmh S 10.4 mph16.7 kmh 29.83 in1010.2 mb - 0.00 in0.0 mm 0.11 in2.8 mm
12:45 PM 72.0°F22.2°C 60.5°F15.8°C 67% 4.6 mph SSW7.4 kmh SSW 6.9 mph11.1 kmh 29.83 in1010.2 mb - 0.00 in0.0 mm 0.11 in2.8 mm
12:50 PM 72.7°F22.6°C 59.4°F15.2°C 63% 3.5 mph WSW5.6 kmh WSW 9.2 mph14.8 kmh 29.83 in1010.2 mb - 0.00 in0.0 mm 0.11 in2.8 mm
12:55 PM 72.4°F22.4°C 60.0°F15.6°C 65% 2.3 mph SW3.7 kmh SW 6.9 mph11.1 kmh 29.83 in1010.2 mb - 0.00 in0.0 mm 0.11 in2.8 mm
01:00 PM 72.6°F22.6°C 59.7°F15.4°C 64% 3.5 mph WSW5.6 kmh WSW 6.9 mph11.1 kmh 29.82 in1009.8 mb - 0.00 in0.0 mm 0.11 in2.8 mm
01:10 PM 72.3°F22.4°C 59.9°F15.5°C 65% 4.6 mph WSW7.4 kmh WSW 6.9 mph11.1 kmh 29.82 in1009.8 mb - 0.00 in0.0 mm 0.11 in2.8 mm
01:15 PM 72.5°F22.5°C 60.1°F15.6°C 65% 3.5 mph S5.6 kmh S 5.8 mph9.3 kmh 29.82 in1009.8 mb - 0.00 in0.0 mm 0.11 in2.8 mm
01:20 PM 72.5°F22.5°C 59.6°F15.3°C 64% 3.5 mph S5.6 kmh S 8.1 mph13.0 kmh 29.81 in1009.5 mb - 0.00 in0.0 mm 0.11 in2.8 mm
01:25 PM 72.1°F22.3°C 60.1°F15.6°C 66% 3.5 mph S5.6 kmh S 8.1 mph13.0 kmh 29.81 in1009.5 mb - 0.00 in0.0 mm 0.11 in2.8 mm
01:30 PM 72.1°F22.3°C 60.5°F15.8°C 67% 2.3 mph S3.7 kmh S 3.5 mph5.6 kmh 29.80 in1009.1 mb - 0.00 in0.0 mm 0.11 in2.8 mm
01:35 PM 72.7°F22.6°C 60.3°F15.7°C 65% 3.5 mph W5.6 kmh W 10.4 mph16.7 kmh 29.80 in1009.1 mb - 0.00 in0.0 mm 0.11 in2.8 mm
01:40 PM 72.9°F22.7°C 59.1°F15.1°C 62% 4.6 mph W7.4 kmh W 11.5 mph18.5 kmh 29.80 in1009.1 mb - 0.00 in0.0 mm 0.11 in2.8 mm
01:45 PM 72.5°F22.5°C 59.2°F15.1°C 63% 3.5 mph SSW5.6 kmh SSW 6.9 mph11.1 kmh 29.80 in1009.1 mb - 0.00 in0.0 mm 0.11 in2.8 mm
01:50 PM 72.4°F22.4°C 59.1°F15.1°C 63% 4.6 mph WSW7.4 kmh WSW 5.8 mph9.3 kmh 29.80 in1009.1 mb - 0.00 in0.0 mm 0.11 in2.8 mm
01:55 PM 73.0°F22.8°C 59.6°F15.3°C 63% 3.5 mph WSW5.6 kmh WSW 4.6 mph7.4 kmh 29.79 in1008.8 mb - 0.00 in0.0 mm 0.11 in2.8 mm
02:00 PM 73.4°F23.0°C 59.2°F15.1°C 61% 3.5 mph WSW5.6 kmh WSW 6.9 mph11.1 kmh 29.80 in1009.1 mb - 0.00 in0.0 mm 0.11 in2.8 mm
02:10 PM 73.7°F23.2°C 59.0°F15.0°C 60% 4.6 mph SSW7.4 kmh SSW 8.1 mph13.0 kmh 29.79 in1008.8 mb - 0.00 in0.0 mm 0.11 in2.8 mm
02:15 PM 74.0°F23.3°C 59.2°F15.1°C 60% 5.8 mph W9.3 kmh W 8.1 mph13.0 kmh 29.79 in1008.8 mb - 0.00 in0.0 mm 0.11 in2.8 mm
02:20 PM 74.5°F23.6°C 59.2°F15.1°C 59% 4.6 mph SW7.4 kmh SW 5.8 mph9.3 kmh 29.79 in1008.8 mb - 0.00 in0.0 mm 0.11 in2.8 mm
02:25 PM 74.8°F23.8°C 59.5°F15.3°C 59% 3.5 mph WSW5.6 kmh WSW 5.8 mph9.3 kmh 29.79 in1008.8 mb - 0.00 in0.0 mm 0.11 in2.8 mm
02:30 PM 75.3°F24.1°C 59.5°F15.3°C 58% 3.5 mph WSW5.6 kmh WSW 6.9 mph11.1 kmh 29.78 in1008.5 mb - 0.00 in0.0 mm 0.11 in2.8 mm
02:35 PM 75.8°F24.3°C 59.5°F15.3°C 57% 3.5 mph WSW5.6 kmh WSW 5.8 mph9.3 kmh 29.78 in1008.5 mb - 0.00 in0.0 mm 0.11 in2.8 mm
02:40 PM 76.1°F24.5°C 59.3°F15.2°C 56% 4.6 mph WSW7.4 kmh WSW 10.4 mph16.7 kmh 29.78 in1008.5 mb - 0.00 in0.0 mm 0.11 in2.8 mm
02:45 PM 75.7°F24.3°C 58.4°F14.7°C 55% 4.6 mph WSW7.4 kmh WSW 8.1 mph13.0 kmh 29.78 in1008.5 mb - 0.00 in0.0 mm 0.11 in2.8 mm
02:50 PM 75.3°F24.1°C 58.5°F14.7°C 56% 4.6 mph WNW7.4 kmh WNW 9.2 mph14.8 kmh 29.78 in1008.5 mb - 0.00 in0.0 mm 0.11 in2.8 mm
02:55 PM 75.3°F24.1°C 59.0°F15.0°C 57% 4.6 mph WSW7.4 kmh WSW 8.1 mph13.0 kmh 29.78 in1008.5 mb - 0.00 in0.0 mm 0.11 in2.8 mm
03:00 PM 75.1°F23.9°C 59.3°F15.2°C 58% 3.5 mph WSW5.6 kmh WSW 3.5 mph5.6 kmh 29.78 in1008.5 mb - 0.00 in0.0 mm 0.11 in2.8 mm
03:10 PM 76.2°F24.6°C 60.3°F15.7°C 58% 2.3 mph SW3.7 kmh SW 6.9 mph11.1 kmh 29.77 in1008.1 mb - 0.00 in0.0 mm 0.11 in2.8 mm
03:15 PM 76.5°F24.7°C 60.1°F15.6°C 57% 4.6 mph WSW7.4 kmh WSW 8.1 mph13.0 kmh 29.77 in1008.1 mb - 0.00 in0.0 mm 0.11 in2.8 mm
03:20 PM 75.7°F24.3°C 60.3°F15.7°C 59% 2.3 mph WSW3.7 kmh WSW 5.8 mph9.3 kmh 29.77 in1008.1 mb - 0.00 in0.0 mm 0.11 in2.8 mm
03:25 PM 76.6°F24.8°C 60.8°F16.0°C 58% 4.6 mph WSW7.4 kmh WSW 6.9 mph11.1 kmh 29.77 in1008.1 mb - 0.00 in0.0 mm 0.11 in2.8 mm
03:30 PM 76.6°F24.8°C 59.7°F15.4°C 56% 4.6 mph WSW7.4 kmh WSW 8.1 mph13.0 kmh 29.77 in1008.1 mb - 0.00 in0.0 mm 0.11 in2.8 mm
03:35 PM 76.1°F24.5°C 59.8°F15.4°C 57% 4.6 mph WSW7.4 kmh WSW 5.8 mph9.3 kmh 29.76 in1007.8 mb - 0.00 in0.0 mm 0.11 in2.8 mm
03:40 PM 76.6°F24.8°C 60.2°F15.7°C 57% 2.3 mph W3.7 kmh W 9.2 mph14.8 kmh 29.76 in1007.8 mb - 0.00 in0.0 mm 0.11 in2.8 mm
03:45 PM 77.0°F25.0°C 59.1°F15.1°C 54% 4.6 mph WSW7.4 kmh WSW 10.4 mph16.7 kmh 29.75 in1007.5 mb - 0.00 in0.0 mm 0.11 in2.8 mm
03:50 PM 77.3°F25.2°C 58.3°F14.6°C 52% 4.6 mph W7.4 kmh W 9.2 mph14.8 kmh 29.75 in1007.5 mb - 0.00 in0.0 mm 0.11 in2.8 mm
03:55 PM 77.2°F25.1°C 57.1°F13.9°C 50% 4.6 mph W7.4 kmh W 9.2 mph14.8 kmh 29.75 in1007.5 mb - 0.00 in0.0 mm 0.11 in2.8 mm
04:00 PM 77.9°F25.5°C 56.0°F13.3°C 47% 4.6 mph W7.4 kmh W 11.5 mph18.5 kmh 29.75 in1007.5 mb - 0.00 in0.0 mm 0.11 in2.8 mm
04:10 PM 78.0°F25.6°C 55.5°F13.1°C 46% 6.9 mph W11.1 kmh W 11.5 mph18.5 kmh 29.75 in1007.5 mb - 0.00 in0.0 mm 0.11 in2.8 mm
04:15 PM 77.8°F25.4°C 54.1°F12.3°C 44% 4.6 mph WSW7.4 kmh WSW 8.1 mph13.0 kmh 29.75 in1007.5 mb - 0.00 in0.0 mm 0.11 in2.8 mm
04:20 PM 77.8°F25.4°C 54.8°F12.7°C 45% 6.9 mph W11.1 kmh W 12.7 mph20.4 kmh 29.75 in1007.5 mb - 0.00 in0.0 mm 0.11 in2.8 mm
04:25 PM 77.3°F25.2°C 54.3°F12.4°C 45% 5.8 mph W9.3 kmh W 8.1 mph13.0 kmh 29.75 in1007.5 mb - 0.00 in0.0 mm 0.11 in2.8 mm
04:30 PM 77.2°F25.1°C 55.4°F13.0°C 47% 5.8 mph W9.3 kmh W 8.1 mph13.0 kmh 29.75 in1007.5 mb - 0.00 in0.0 mm 0.11 in2.8 mm
04:35 PM 77.1°F25.1°C 54.7°F12.6°C 46% 6.9 mph W11.1 kmh W 10.4 mph16.7 kmh 29.75 in1007.5 mb - 0.00 in0.0 mm 0.11 in2.8 mm
04:40 PM 77.0°F25.0°C 55.3°F12.9°C 47% 5.8 mph W9.3 kmh W 10.4 mph16.7 kmh 29.75 in1007.5 mb - 0.00 in0.0 mm 0.11 in2.8 mm
04:45 PM 77.1°F25.1°C 55.3°F12.9°C 47% 4.6 mph W7.4 kmh W 6.9 mph11.1 kmh 29.75 in1007.5 mb - 0.00 in0.0 mm 0.11 in2.8 mm
04:50 PM 77.1°F25.1°C 55.9°F13.3°C 48% 4.6 mph WSW7.4 kmh WSW 4.6 mph7.4 kmh 29.75 in1007.5 mb - 0.00 in0.0 mm 0.11 in2.8 mm
04:55 PM 77.1°F25.1°C 55.3°F12.9°C 47% 5.8 mph WSW9.3 kmh WSW 9.2 mph14.8 kmh 29.74 in1007.1 mb - 0.00 in0.0 mm 0.11 in2.8 mm
05:00 PM 76.7°F24.8°C 55.5°F13.1°C 48% 4.6 mph W7.4 kmh W 8.1 mph13.0 kmh 29.74 in1007.1 mb - 0.00 in0.0 mm 0.11 in2.8 mm
05:10 PM 76.6°F24.8°C 54.3°F12.4°C 46% 5.8 mph W9.3 kmh W 9.2 mph14.8 kmh 29.75 in1007.5 mb - 0.00 in0.0 mm 0.11 in2.8 mm
05:15 PM 76.7°F24.8°C 54.3°F12.4°C 46% 4.6 mph W7.4 kmh W 6.9 mph11.1 kmh 29.75 in1007.5 mb - 0.00 in0.0 mm 0.11 in2.8 mm
05:20 PM 76.6°F24.8°C 52.4°F11.3°C 43% 8.1 mph W13.0 kmh W 10.4 mph16.7 kmh 29.74 in1007.1 mb - 0.00 in0.0 mm 0.11 in2.8 mm
05:25 PM 76.6°F24.8°C 52.5°F11.4°C 43% 5.8 mph W9.3 kmh W 10.4 mph16.7 kmh 29.75 in1007.5 mb - 0.00 in0.0 mm 0.11 in2.8 mm
05:30 PM 76.7°F24.8°C 51.9°F11.1°C 42% 5.8 mph W9.3 kmh W 8.1 mph13.0 kmh 29.75 in1007.5 mb - 0.00 in0.0 mm 0.11 in2.8 mm
05:35 PM 76.7°F24.8°C 51.9°F11.1°C 42% 4.6 mph W7.4 kmh W 8.1 mph13.0 kmh 29.75 in1007.5 mb - 0.00 in0.0 mm 0.11 in2.8 mm
05:40 PM 76.4°F24.7°C 51.0°F10.6°C 41% 5.8 mph W9.3 kmh W 8.1 mph13.0 kmh 29.75 in1007.5 mb - 0.00 in0.0 mm 0.11 in2.8 mm
05:45 PM 76.4°F24.7°C 50.9°F10.5°C 41% 4.6 mph W7.4 kmh W 6.9 mph11.1 kmh 29.75 in1007.5 mb - 0.00 in0.0 mm 0.11 in2.8 mm
05:50 PM 76.1°F24.5°C 48.7°F9.3°C 38% 6.9 mph W11.1 kmh W 10.4 mph16.7 kmh 29.75 in1007.5 mb - 0.00 in0.0 mm 0.11 in2.8 mm
05:55 PM 75.8°F24.3°C 49.1°F9.5°C 39% 4.6 mph W7.4 kmh W 6.9 mph11.1 kmh 29.75 in1007.5 mb - 0.00 in0.0 mm 0.11 in2.8 mm
06:00 PM 75.7°F24.3°C 48.3°F9.1°C 38% 5.8 mph W9.3 kmh W 9.2 mph14.8 kmh 29.76 in1007.8 mb - 0.00 in0.0 mm 0.11 in2.8 mm
06:10 PM 75.3°F24.1°C 47.2°F8.4°C 37% 5.8 mph W9.3 kmh W 8.1 mph13.0 kmh 29.76 in1007.8 mb - 0.00 in0.0 mm 0.11 in2.8 mm
06:15 PM 75.0°F23.9°C 46.3°F7.9°C 36% 4.6 mph NW7.4 kmh NW 8.1 mph13.0 kmh 29.76 in1007.8 mb - 0.00 in0.0 mm 0.11 in2.8 mm
06:20 PM 74.7°F23.7°C 45.3°F7.4°C 35% 4.6 mph WNW7.4 kmh WNW 6.9 mph11.1 kmh 29.77 in1008.1 mb - 0.00 in0.0 mm 0.11 in2.8 mm
06:25 PM 74.4°F23.6°C 45.7°F7.6°C 36% 4.6 mph WNW7.4 kmh WNW 6.9 mph11.1 kmh 29.77 in1008.1 mb - 0.00 in0.0 mm 0.11 in2.8 mm
06:30 PM 74.0°F23.3°C 44.6°F7.0°C 35% 3.5 mph WNW5.6 kmh WNW 6.9 mph11.1 kmh 29.77 in1008.1 mb - 0.00 in0.0 mm 0.11 in2.8 mm
06:35 PM 73.5°F23.1°C 44.9°F7.2°C 36% 3.5 mph W5.6 kmh W 5.8 mph9.3 kmh 29.77 in1008.1 mb - 0.00 in0.0 mm 0.11 in2.8 mm
06:40 PM 73.3°F22.9°C 44.7°F7.1°C 36% 4.6 mph WNW7.4 kmh WNW 3.5 mph5.6 kmh 29.77 in1008.1 mb - 0.00 in0.0 mm 0.11 in2.8 mm
06:45 PM 72.7°F22.6°C 44.9°F7.2°C 37% 2.3 mph WNW3.7 kmh WNW 3.5 mph5.6 kmh 29.77 in1008.1 mb - 0.00 in0.0 mm 0.11 in2.8 mm
06:50 PM 72.3°F22.4°C 44.5°F6.9°C 37% 3.5 mph WNW5.6 kmh WNW 3.5 mph5.6 kmh 29.77 in1008.1 mb - 0.00 in0.0 mm 0.11 in2.8 mm
06:55 PM 72.2°F22.3°C 44.5°F6.9°C 37% 3.5 mph W5.6 kmh W 5.8 mph9.3 kmh 29.78 in1008.5 mb - 0.00 in0.0 mm 0.11 in2.8 mm
07:00 PM 71.7°F22.1°C 44.8°F7.1°C 38% 2.3 mph WNW3.7 kmh WNW 3.5 mph5.6 kmh 29.77 in1008.1 mb - 0.00 in0.0 mm 0.11 in2.8 mm
07:10 PM 70.8°F21.6°C 43.9°F6.6°C 38% 4.6 mph W7.4 kmh W 5.8 mph9.3 kmh 29.78 in1008.5 mb - 0.00 in0.0 mm 0.11 in2.8 mm
07:15 PM 70.7°F21.5°C 44.5°F6.9°C 39% 4.6 mph WNW7.4 kmh WNW 9.2 mph14.8 kmh 29.79 in1008.8 mb - 0.00 in0.0 mm 0.11 in2.8 mm
07:20 PM 70.9°F21.6°C 43.3°F6.3°C 37% 5.8 mph WNW9.3 kmh WNW 6.9 mph11.1 kmh 29.79 in1008.8 mb - 0.00 in0.0 mm 0.11 in2.8 mm
07:25 PM 70.8°F21.6°C 43.2°F6.2°C 37% 5.8 mph WNW9.3 kmh WNW 8.1 mph13.0 kmh 29.79 in1008.8 mb - 0.00 in0.0 mm 0.11 in2.8 mm
07:30 PM 70.7°F21.5°C 43.1°F6.2°C 37% 5.8 mph W9.3 kmh W 9.2 mph14.8 kmh 29.79 in1008.8 mb - 0.00 in0.0 mm 0.11 in2.8 mm
07:35 PM 70.5°F21.4°C 41.5°F5.3°C 35% 5.8 mph W9.3 kmh W 9.2 mph14.8 kmh 29.79 in1008.8 mb - 0.00 in0.0 mm 0.11 in2.8 mm
07:40 PM 70.5°F21.4°C 42.2°F5.7°C 36% 4.6 mph W7.4 kmh W 5.8 mph9.3 kmh 29.80 in1009.1 mb - 0.00 in0.0 mm 0.11 in2.8 mm
07:45 PM 70.1°F21.2°C 43.3°F6.3°C 38% 4.6 mph WNW7.4 kmh WNW 6.9 mph11.1 kmh 29.80 in1009.1 mb - 0.00 in0.0 mm 0.11 in2.8 mm
07:50 PM 69.7°F20.9°C 43.7°F6.5°C 39% 4.6 mph WNW7.4 kmh WNW 6.9 mph11.1 kmh 29.80 in1009.1 mb - 0.00 in0.0 mm 0.11 in2.8 mm
07:55 PM 69.5°F20.8°C 44.1°F6.7°C 40% 3.5 mph WNW5.6 kmh WNW 8.1 mph13.0 kmh 29.81 in1009.5 mb - 0.00 in0.0 mm 0.11 in2.8 mm
08:00 PM 69.6°F20.9°C 43.5°F6.4°C 39% 4.6 mph NW7.4 kmh NW 6.9 mph11.1 kmh 29.81 in1009.5 mb - 0.00 in0.0 mm 0.11 in2.8 mm
08:10 PM 69.1°F20.6°C 43.7°F6.5°C 40% 3.5 mph WNW5.6 kmh WNW 5.8 mph9.3 kmh 29.81 in1009.5 mb - 0.00 in0.0 mm 0.11 in2.8 mm
08:15 PM 68.3°F20.2°C 47.8°F8.8°C 48% 3.5 mph NNW5.6 kmh NNW 8.1 mph13.0 kmh 29.82 in1009.8 mb - 0.00 in0.0 mm 0.11 in2.8 mm
08:20 PM 66.2°F19.0°C 50.0°F10.0°C 56% 3.5 mph N5.6 kmh N 5.8 mph9.3 kmh 29.83 in1010.2 mb - 0.00 in0.0 mm 0.11 in2.8 mm
08:25 PM 64.1°F17.8°C 51.2°F10.7°C 63% 3.5 mph N5.6 kmh N 5.8 mph9.3 kmh 29.84 in1010.5 mb - 0.00 in0.0 mm 0.11 in2.8 mm
08:30 PM 62.6°F17.0°C 51.5°F10.8°C 67% 3.5 mph N5.6 kmh N 4.6 mph7.4 kmh 29.84 in1010.5 mb - 0.00 in0.0 mm 0.11 in2.8 mm
08:35 PM 61.8°F16.6°C 51.5°F10.8°C 69% 3.5 mph NW5.6 kmh NW 8.1 mph13.0 kmh 29.84 in1010.5 mb - 0.00 in0.0 mm 0.11 in2.8 mm
08:40 PM 61.1°F16.2°C 51.6°F10.9°C 71% 2.3 mph NNW3.7 kmh NNW 4.6 mph7.4 kmh 29.85 in1010.8 mb - 0.00 in0.0 mm 0.11 in2.8 mm
08:45 PM 60.5°F15.8°C 51.5°F10.8°C 72% 2.3 mph N3.7 kmh N 3.5 mph5.6 kmh 29.85 in1010.8 mb - 0.00 in0.0 mm 0.11 in2.8 mm
08:50 PM 60.2°F15.7°C 51.5°F10.8°C 73% 2.3 mph N3.7 kmh N 3.5 mph5.6 kmh 29.86 in1011.2 mb - 0.00 in0.0 mm 0.11 in2.8 mm
08:55 PM 59.9°F15.5°C 51.2°F10.7°C 73% 2.3 mph NNW3.7 kmh NNW 3.5 mph5.6 kmh 29.86 in1011.2 mb - 0.00 in0.0 mm 0.11 in2.8 mm
09:00 PM 59.5°F15.3°C 51.2°F10.7°C 74% 2.3 mph NW3.7 kmh NW 3.5 mph5.6 kmh 29.86 in1011.2 mb - 0.00 in0.0 mm 0.11 in2.8 mm
09:10 PM 58.7°F14.8°C 50.5°F10.3°C 74% 2.3 mph N3.7 kmh N 3.5 mph5.6 kmh 29.87 in1011.5 mb - 0.00 in0.0 mm 0.11 in2.8 mm
09:15 PM 58.5°F14.7°C 50.6°F10.3°C 75% 2.3 mph N3.7 kmh N 3.5 mph5.6 kmh 29.88 in1011.9 mb - 0.00 in0.0 mm 0.11 in2.8 mm
09:20 PM 58.2°F14.6°C 50.3°F10.2°C 75% 2.3 mph N3.7 kmh N 4.6 mph7.4 kmh 29.88 in1011.9 mb - 0.00 in0.0 mm 0.11 in2.8 mm
09:25 PM 57.9°F14.4°C 50.0°F10.0°C 75% 2.3 mph NNW3.7 kmh NNW 4.6 mph7.4 kmh 29.88 in1011.9 mb - 0.00 in0.0 mm 0.11 in2.8 mm
09:30 PM 57.7°F14.3°C 49.8°F9.9°C 75% 2.3 mph NNW3.7 kmh NNW 3.5 mph5.6 kmh 29.88 in1011.9 mb - 0.00 in0.0 mm 0.11 in2.8 mm
09:35 PM 57.4°F14.1°C 49.9°F9.9°C 76% 2.3 mph NNW3.7 kmh NNW 3.5 mph5.6 kmh 29.89 in1012.2 mb - 0.00 in0.0 mm 0.11 in2.8 mm
09:40 PM 57.2°F14.0°C 49.7°F9.8°C 76% 2.3 mph NNW3.7 kmh NNW 3.5 mph5.6 kmh 29.89 in1012.2 mb - 0.00 in0.0 mm 0.11 in2.8 mm
09:45 PM 56.9°F13.8°C 49.4°F9.7°C 76% 2.3 mph NNW3.7 kmh NNW 3.5 mph5.6 kmh 29.90 in1012.5 mb - 0.00 in0.0 mm 0.11 in2.8 mm
09:50 PM 56.7°F13.7°C 49.2°F9.6°C 76% 2.3 mph N3.7 kmh N 3.5 mph5.6 kmh 29.90 in1012.5 mb - 0.00 in0.0 mm 0.11 in2.8 mm
09:55 PM 56.4°F13.6°C 48.9°F9.4°C 76% 2.3 mph NNW3.7 kmh NNW 3.5 mph5.6 kmh 29.91 in1012.9 mb - 0.00 in0.0 mm 0.11 in2.8 mm
10:00 PM 56.1°F13.4°C 48.6°F9.2°C 76% 2.3 mph N3.7 kmh N 3.5 mph5.6 kmh 29.91 in1012.9 mb - 0.00 in0.0 mm 0.11 in2.8 mm
10:10 PM 55.5°F13.1°C 48.4°F9.1°C 77% 2.3 mph N3.7 kmh N 3.5 mph5.6 kmh 29.91 in1012.9 mb - 0.00 in0.0 mm 0.11 in2.8 mm
10:15 PM 55.3°F12.9°C 47.9°F8.8°C 76% 2.3 mph N3.7 kmh N 3.5 mph5.6 kmh 29.92 in1013.2 mb - 0.00 in0.0 mm 0.11 in2.8 mm
10:20 PM 55.0°F12.8°C 48.0°F8.9°C 77% 2.3 mph NW3.7 kmh NW 3.5 mph5.6 kmh 29.92 in1013.2 mb - 0.00 in0.0 mm 0.11 in2.8 mm
10:25 PM 54.7°F12.6°C 47.7°F8.7°C 77% 2.3 mph NNW3.7 kmh NNW 6.9 mph11.1 kmh 29.92 in1013.2 mb - 0.00 in0.0 mm 0.11 in2.8 mm
10:30 PM 54.4°F12.4°C 47.3°F8.5°C 77% 2.3 mph NNW3.7 kmh NNW 3.5 mph5.6 kmh 29.93 in1013.5 mb - 0.00 in0.0 mm 0.11 in2.8 mm
10:35 PM 54.1°F12.3°C 47.0°F8.3°C 77% 2.3 mph N3.7 kmh N 3.5 mph5.6 kmh 29.93 in1013.5 mb - 0.00 in0.0 mm 0.11 in2.8 mm
10:40 PM 53.9°F12.2°C 46.8°F8.2°C 77% 1.2 mph NNW1.9 kmh NNW 2.3 mph3.7 kmh 29.93 in1013.5 mb - 0.00 in0.0 mm 0.11 in2.8 mm
10:45 PM 53.5°F11.9°C 46.9°F8.3°C 78% 1.2 mph NW1.9 kmh NW 3.5 mph5.6 kmh 29.93 in1013.5 mb - 0.00 in0.0 mm 0.11 in2.8 mm
10:50 PM 53.3°F11.8°C 46.6°F8.1°C 78% 2.3 mph N3.7 kmh N 3.5 mph5.6 kmh 29.93 in1013.5 mb - 0.00 in0.0 mm 0.11 in2.8 mm
10:55 PM 53.1°F11.7°C 46.4°F8.0°C 78% 1.2 mph NNW1.9 kmh NNW 2.3 mph3.7 kmh 29.93 in1013.5 mb - 0.00 in0.0 mm 0.11 in2.8 mm
11:00 PM 52.9°F11.6°C 46.5°F8.1°C 79% 1.2 mph NNW1.9 kmh NNW 2.3 mph3.7 kmh 29.93 in1013.5 mb - 0.00 in0.0 mm 0.11 in2.8 mm
11:10 PM 52.3°F11.3°C 46.0°F7.8°C 79% 1.2 mph N1.9 kmh N 2.3 mph3.7 kmh 29.94 in1013.9 mb - 0.00 in0.0 mm 0.11 in2.8 mm
11:15 PM 52.0°F11.1°C 46.0°F7.8°C 80% 2.3 mph NNE3.7 kmh NNE 3.5 mph5.6 kmh 29.94 in1013.9 mb - 0.00 in0.0 mm 0.11 in2.8 mm
11:20 PM 51.8°F11.0°C 45.8°F7.7°C 80% 2.3 mph N3.7 kmh N 3.5 mph5.6 kmh 29.94 in1013.9 mb - 0.00 in0.0 mm 0.11 in2.8 mm
11:25 PM 51.5°F10.8°C 45.8°F7.7°C 81% 2.3 mph N3.7 kmh N 3.5 mph5.6 kmh 29.94 in1013.9 mb - 0.00 in0.0 mm 0.11 in2.8 mm
11:30 PM 51.3°F10.7°C 45.7°F7.6°C 81% 2.3 mph NNE3.7 kmh NNE 3.5 mph5.6 kmh 29.94 in1013.9 mb - 0.00 in0.0 mm 0.11 in2.8 mm
11:35 PM 51.2°F10.7°C 45.6°F7.6°C 81% 1.2 mph NNE1.9 kmh NNE 2.3 mph3.7 kmh 29.94 in1013.9 mb - 0.00 in0.0 mm 0.11 in2.8 mm
11:40 PM 51.0°F10.6°C 45.4°F7.4°C 81% 1.2 mph NNE1.9 kmh NNE 2.3 mph3.7 kmh 29.94 in1013.9 mb - 0.00 in0.0 mm 0.11 in2.8 mm
11:45 PM 50.7°F10.4°C 45.1°F7.3°C 81% Calm Calm 1.2 mph1.9 kmh 29.94 in1013.9 mb - 0.00 in0.0 mm 0.11 in2.8 mm
11:50 PM 50.7°F10.4°C 45.4°F7.4°C 82% Calm Calm 2.3 mph3.7 kmh 29.95 in1014.2 mb - 0.00 in0.0 mm 0.11 in2.8 mm
11:55 PM 50.6°F10.3°C 45.3°F7.4°C 82% Calm Calm 1.2 mph1.9 kmh 29.95 in1014.2 mb - 0.00 in0.0 mm 0.11 in2.8 mm